createdAt,value
2022-11-19T00:04:08.305Z,60.26
2022-11-19T00:09:14.705Z,60.32
2022-11-19T00:14:17.178Z,60.53
2022-11-19T00:19:19.718Z,60.93
2022-11-19T00:24:23.056Z,61.07
2022-11-19T00:29:25.343Z,61.25
2022-11-19T00:34:27.680Z,61.38
2022-11-19T00:39:30.564Z,61.41
2022-11-19T00:44:37.190Z,61.81
2022-11-19T00:49:39.962Z,61.84
2022-11-19T00:54:42.240Z,61.95
2022-11-19T00:59:44.492Z,61.87
2022-11-19T01:04:46.681Z,62.28
2022-11-19T01:09:48.906Z,62.61
2022-11-19T01:14:51.309Z,62.61
2022-11-19T01:19:53.552Z,62.63
2022-11-19T01:24:55.752Z,62.94
2022-11-19T01:29:57.981Z,63.08
2022-11-19T01:35:00.195Z,63.13
2022-11-19T01:40:02.406Z,63.31
2022-11-19T01:45:07.145Z,63.68
2022-11-19T01:50:09.506Z,63.73
2022-11-19T01:55:12.489Z,64.06
2022-11-19T02:00:15.177Z,64.29
2022-11-19T02:05:18.033Z,64.34
2022-11-19T02:10:24.434Z,64.20
2022-11-19T02:15:29.359Z,64.57
2022-11-19T02:20:50.291Z,64.50
2022-11-19T02:26:20.170Z,64.46
2022-11-19T02:31:31.669Z,64.44
2022-11-19T02:36:59.753Z,64.65
2022-11-19T02:42:30.565Z,64.39
2022-11-19T02:47:35.837Z,64.93
2022-11-19T02:52:40.217Z,64.86
2022-11-19T02:57:51.904Z,65.00
2022-11-19T03:03:18.623Z,64.94
2022-11-19T03:08:21.437Z,65.23
2022-11-19T03:13:55.640Z,65.41
2022-11-19T03:19:08.671Z,65.23
2022-11-19T03:24:23.911Z,65.47
2022-11-19T03:29:28.465Z,65.46
2022-11-19T03:34:32.159Z,66.29
2022-11-19T03:39:37.546Z,66.22
2022-11-19T03:44:45.368Z,66.08
2022-11-19T03:49:52.731Z,66.47
2022-11-19T03:54:55.281Z,66.18
2022-11-19T03:59:57.478Z,66.50
2022-11-19T04:04:59.716Z,66.43
2022-11-19T04:10:02.139Z,66.70
2022-11-19T04:15:04.737Z,66.46
2022-11-19T04:20:08.409Z,66.81
2022-11-19T04:25:10.751Z,66.72
2022-11-19T04:30:13.848Z,67.04
2022-11-19T04:35:19.268Z,67.05
2022-11-19T04:40:21.630Z,67.08
2022-11-19T04:45:23.896Z,67.43
2022-11-19T04:50:26.224Z,67.30
2022-11-19T04:55:28.420Z,67.28
2022-11-19T05:00:30.907Z,67.99
2022-11-19T05:05:33.174Z,68.02
2022-11-19T05:10:35.524Z,69.01
2022-11-19T05:15:37.977Z,68.78
2022-11-19T05:20:40.389Z,68.42
2022-11-19T05:25:42.631Z,68.02
2022-11-19T05:30:44.968Z,68.27
2022-11-19T05:35:47.294Z,67.84
2022-11-19T05:40:49.520Z,67.88
2022-11-19T05:45:53.418Z,68.06
2022-11-19T05:50:55.888Z,68.42
2022-11-19T05:55:58.094Z,68.76
2022-11-19T06:01:00.651Z,68.47
2022-11-19T06:06:02.998Z,68.41
2022-11-19T06:11:05.384Z,68.29
2022-11-19T06:16:07.769Z,68.15
2022-11-19T06:21:12.251Z,68.58
2022-11-19T06:26:23.754Z,68.49
2022-11-19T06:31:26.306Z,68.36
2022-11-19T06:36:33.732Z,68.05
2022-11-19T06:41:39.846Z,68.23
2022-11-19T06:46:42.075Z,68.00
2022-11-19T06:51:44.348Z,68.02
2022-11-19T06:56:46.585Z,67.90
2022-11-19T07:01:48.836Z,67.73
2022-11-19T07:06:51.200Z,67.92
2022-11-19T07:11:53.691Z,67.51
2022-11-19T07:16:56.700Z,67.02
2022-11-19T07:21:59.085Z,66.77
2022-11-19T07:27:01.574Z,66.54
2022-11-19T07:32:03.810Z,66.49
2022-11-19T07:37:06.165Z,66.10
2022-11-19T07:42:27.523Z,65.96
2022-11-19T07:47:30.158Z,66.05
2022-11-19T07:52:32.701Z,65.78
2022-11-19T07:57:35.356Z,65.90
2022-11-19T08:02:38.894Z,65.70
2022-11-19T08:07:42.292Z,65.81
2022-11-19T08:13:03.411Z,65.91
2022-11-19T08:18:16.536Z,65.77
2022-11-19T08:23:18.880Z,65.66
2022-11-19T08:28:21.296Z,65.09
2022-11-19T08:33:23.603Z,64.92
2022-11-19T08:38:26.705Z,64.70
2022-11-19T08:43:28.987Z,64.34
2022-11-19T08:48:31.330Z,64.22
2022-11-19T08:53:34.612Z,63.81
2022-11-19T08:58:37.041Z,63.19
2022-11-19T09:03:39.974Z,62.79
2022-11-19T09:08:42.488Z,62.76
2022-11-19T09:13:45.091Z,62.65
2022-11-19T09:18:47.367Z,62.66
2022-11-19T09:23:49.957Z,62.58
2022-11-19T09:28:52.322Z,62.43
2022-11-19T09:33:55.047Z,62.38
2022-11-19T09:38:58.695Z,62.48
2022-11-19T09:44:23.125Z,62.55
2022-11-19T09:49:38.308Z,62.41
2022-11-19T09:54:50.707Z,62.34
2022-11-19T09:59:57.217Z,62.07
2022-11-19T10:04:59.887Z,61.87
2022-11-19T10:10:23.068Z,61.50
2022-11-19T10:15:37.953Z,61.51
2022-11-19T10:20:53.581Z,61.49
2022-11-19T10:26:04.466Z,60.96
2022-11-19T10:31:36.579Z,60.48
2022-11-19T10:36:47.106Z,60.02
2022-11-19T10:42:01.169Z,59.13
2022-11-19T10:47:37.512Z,58.27
2022-11-19T10:52:53.802Z,57.05
2022-11-19T10:58:24.796Z,56.97
2022-11-19T11:03:44.489Z,56.48
2022-11-19T11:08:55.170Z,55.90
2022-11-19T11:14:18.807Z,55.65
2022-11-19T11:19:22.498Z,55.30
2022-11-19T11:24:35.673Z,55.03
2022-11-19T11:29:37.933Z,54.96
2022-11-19T11:34:44.137Z,54.54
2022-11-19T11:39:53.113Z,54.57
2022-11-19T11:45:01.688Z,53.99
2022-11-19T11:50:15.648Z,54.12
2022-11-19T11:55:23.899Z,53.90
2022-11-19T12:00:46.507Z,53.95
2022-11-19T12:06:04.439Z,53.55
2022-11-19T12:11:20.346Z,53.52
2022-11-19T12:16:22.588Z,53.26
2022-11-19T12:21:36.682Z,53.22
2022-11-19T12:27:01.507Z,53.14
2022-11-19T12:32:17.373Z,52.80
2022-11-19T12:37:25.364Z,52.44
2022-11-19T12:42:33.351Z,52.40
2022-11-19T12:48:03.269Z,52.30
2022-11-19T12:53:28.248Z,52.38
2022-11-19T12:58:50.744Z,52.03
2022-11-19T13:03:56.017Z,52.13
2022-11-19T13:09:07.836Z,52.15
2022-11-19T13:14:36.068Z,51.65
2022-11-19T13:19:40.100Z,50.83
2022-11-19T13:24:47.442Z,50.18
2022-11-19T13:30:00.156Z,45.66
2022-11-19T13:35:19.133Z,44.16
2022-11-19T13:40:37.462Z,43.73
2022-11-19T13:45:43.768Z,43.54
2022-11-19T13:50:49.369Z,43.95
2022-11-19T13:55:58.056Z,43.82
2022-11-19T14:01:24.606Z,42.10
2022-11-19T14:06:32.279Z,41.38
2022-11-19T14:11:34.732Z,40.67
2022-11-19T14:17:12.270Z,40.52
2022-11-19T14:22:54.050Z,40.43
2022-11-19T14:27:56.316Z,40.62
2022-11-19T14:32:58.824Z,41.87
2022-11-19T14:38:23.655Z,43.18
2022-11-19T14:43:46.359Z,43.79
2022-11-19T14:48:52.594Z,44.54
2022-11-19T14:54:01.793Z,44.70
2022-11-19T14:59:21.175Z,45.22
2022-11-19T15:04:29.751Z,45.62
2022-11-19T15:10:09.184Z,45.47
2022-11-19T15:15:20.612Z,45.82
2022-11-19T15:20:34.040Z,46.10
2022-11-19T15:26:12.316Z,46.14
2022-11-19T15:31:43.478Z,47.05
2022-11-19T15:36:52.562Z,47.08
2022-11-19T15:42:02.832Z,47.37
2022-11-19T15:47:13.162Z,47.76
2022-11-19T15:52:28.959Z,47.88
2022-11-19T15:57:31.725Z,48.30
2022-11-19T16:02:41.630Z,49.13
2022-11-19T16:07:47.372Z,48.84
2022-11-19T16:13:16.602Z,49.25
2022-11-19T16:18:20.718Z,49.49
2022-11-19T16:23:25.519Z,50.30
2022-11-19T16:28:31.029Z,50.55
2022-11-19T16:33:35.010Z,50.83
2022-11-19T16:38:38.884Z,51.17
2022-11-19T16:43:48.938Z,51.37
2022-11-19T16:48:56.163Z,52.28
2022-11-19T16:53:58.804Z,52.01
2022-11-19T16:59:04.322Z,52.20
2022-11-19T17:04:08.589Z,52.13
2022-11-19T17:09:30.854Z,52.42
2022-11-19T17:14:36.102Z,53.01
2022-11-19T17:19:38.382Z,52.94
2022-11-19T17:24:45.352Z,53.27
2022-11-19T17:29:47.652Z,52.77
2022-11-19T17:34:55.550Z,52.72
2022-11-19T17:39:57.813Z,52.28
2022-11-19T17:45:04.757Z,52.27
2022-11-19T17:50:10.015Z,52.23
2022-11-19T17:55:18.507Z,51.96
2022-11-19T18:00:20.971Z,51.67
2022-11-19T18:05:34.706Z,51.58
2022-11-19T18:10:37.273Z,51.27
2022-11-19T18:15:39.742Z,51.32
2022-11-19T18:20:42.557Z,51.27
2022-11-19T18:25:45.294Z,51.29
2022-11-19T18:30:47.897Z,51.54
2022-11-19T18:35:50.197Z,51.40
2022-11-19T18:40:52.655Z,51.37
2022-11-19T18:45:55.038Z,51.41
2022-11-19T18:50:57.538Z,51.89
2022-11-19T18:55:59.890Z,51.83
2022-11-19T19:01:07.605Z,52.00
2022-11-19T19:06:10.235Z,52.04
2022-11-19T19:11:31.509Z,52.64
2022-11-19T19:16:35.176Z,53.19
2022-11-19T19:21:37.469Z,52.99
2022-11-19T19:26:39.819Z,52.21
2022-11-19T19:31:42.205Z,51.98
2022-11-19T19:36:48.974Z,51.79
2022-11-19T19:41:55.420Z,51.88
2022-11-19T19:46:57.864Z,51.80
2022-11-19T19:52:00.113Z,51.62
2022-11-19T19:57:02.532Z,51.15
2022-11-19T20:02:04.944Z,50.75
2022-11-19T20:07:07.570Z,50.94
2022-11-19T20:12:10.150Z,50.65
2022-11-19T20:17:12.504Z,50.64
2022-11-19T20:22:14.741Z,50.17
2022-11-19T20:27:17.039Z,50.45
2022-11-19T20:32:19.320Z,50.55
2022-11-19T20:37:21.708Z,50.92
2022-11-19T20:42:42.242Z,50.90
2022-11-19T20:47:44.519Z,50.78
2022-11-19T20:52:46.923Z,50.65
2022-11-19T20:57:49.521Z,50.94
2022-11-19T21:02:51.785Z,50.95
2022-11-19T21:07:54.164Z,51.29
2022-11-19T21:13:02.439Z,51.24
2022-11-19T21:18:05.008Z,51.19
2022-11-19T21:23:07.293Z,51.04
2022-11-19T21:28:10.005Z,50.96
2022-11-19T21:33:12.286Z,51.24
2022-11-19T21:38:14.830Z,51.12
2022-11-19T21:43:17.283Z,51.19
2022-11-19T21:48:20.058Z,51.23
2022-11-19T21:53:22.406Z,51.08
2022-11-19T21:58:24.653Z,50.96
2022-11-19T22:03:32.826Z,50.96
2022-11-19T22:08:38.801Z,51.39
2022-11-19T22:13:41.162Z,51.40
2022-11-19T22:18:43.719Z,51.44
2022-11-19T22:23:46.299Z,51.11
2022-11-19T22:28:48.751Z,51.07
2022-11-19T22:33:52.380Z,50.69
2022-11-19T22:38:54.786Z,50.88
2022-11-19T22:43:58.900Z,50.89
2022-11-19T22:49:01.428Z,51.12
2022-11-19T22:54:03.986Z,51.05
2022-11-19T22:59:06.197Z,50.95
2022-11-19T23:04:08.695Z,51.17
2022-11-19T23:09:11.154Z,51.11
2022-11-19T23:14:15.384Z,51.08
2022-11-19T23:19:20.023Z,51.30
2022-11-19T23:24:22.598Z,51.63
2022-11-19T23:29:24.922Z,51.69
2022-11-19T23:34:27.338Z,51.66
2022-11-19T23:39:29.565Z,52.13
2022-11-19T23:44:31.785Z,52.11
2022-11-19T23:49:34.003Z,52.32
2022-11-19T23:54:36.275Z,52.51
2022-11-19T23:59:38.566Z,52.83
